Aeroporto :
LOGIN :

Iscrizione | Disclaimer

   EN    FR    IT 

 










Sommario :    VFR   VFR Marginale   IFR   IFR Intensivo   IFR Molto Intensivo
Visibilità : 
Base nubi : 
>= 8 km
>= 3000ft
5 / 8 km
1000 / 3000 ft
1500m / 5 km
500 / 1000 ft
800 / 1500m
200 / 500 ft
< 800m
< 200 ft
Simboli :   Temporali  Nebbia  Neve Forte  Precipitazioni Forti  Vento > 20 kt
SIGMETs :   Varie  Temporali  Ghiacco  Turbolenza  Onda orograficha  Ceneri Vulcaniche







- Altitudine del aeroporto : 755 ft
- Codice IATA : DRS


EDDC - Dresden Klotzsche

ULTIMO METAR :
  • 221220Z 05004KT 360V110 CAVOK 16/08 Q1031 NOSIG

METARs OBSOLETI :
  • 221150Z VRB04KT CAVOK 16/09 Q1032 NOSIG
  • 221120Z VRB04KT CAVOK 15/08 Q1032 NOSIG
  • 221050Z 09004KT 050V140 CAVOK 15/08 Q1032 NOSIG
  • 221020Z VRB03KT CAVOK 14/08 Q1033 NOSIG
  • 220950Z 06004KT 320V090 CAVOK 13/07 Q1033 NOSIG

TAF TAF EDDC
Valido dal 22 a 12 ore il 23 a 12 ore UTC


221100Z 2212/2312 10005KT CAVOK
BECMG 2219/2222 16007KT
BECMG 2306/2309 23005KT
Nessun NOTAM noto per questo aeroporto.



MetMap, La meteo Aeronautica in un colpo d'occhio ! - Copyright ORBIFLY Dicembre 2007 - Disclaimer

ORBIFLY MET'MAP TEAM :

Programmazione e sviluppo : Alexandra Zaïnal
Concezione e sviluppo : Baudouin d'Aumeries
Co-Programmazione e sviluppo : Marc-Olivier Méhu
Supporto tecnico e logistico : Manuel Goepfert
Aiuto per la traduzione : Arnaldo La Scala

Contatto : metmap@orbifly.com




FONTI E CREDITI :

   NOAA